HAL235V KLAX-PHNL
Flight info
| Callsign | HAL235V |
|---|---|
| Flight time | N/A |
| Altitude | 40000 |
| Route | SUMMR2 DINTY DUETS R576 DENNS MAGGI3 |
| Aircraft | B789/H-SDE1E2E3FGHIJ2J3J4J5M1RWXY/LB1D1 |
Departure
| Time | 2026-05-05 13:23 |
|---|---|
| Airport | Los Angeles International Airport (KLAX) |
Arrival
| Time | N/A |
|---|---|
| Airport | Daniel K. Inouye International Airport (PHNL) |
| Time | Latitude | Longitude | Altitude | Speed | Heading |
|---|---|---|---|---|---|
| 2026-05-05 12:52 | 33.94104 | -118.40748 | 99 ft | 0 kts | 69° |
| 2026-05-05 13:14 | 33.94098 | -118.40767 | 100 ft | 4 kts | 69° |
| 2026-05-05 13:15 | 33.94089 | -118.40796 | 96 ft | 2 kts | 69° |
| 2026-05-05 13:15 | 33.94084 | -118.40819 | 96 ft | 4 kts | 116° |
| 2026-05-05 13:15 | 33.94102 | -118.40837 | 99 ft | 4 kts | 171° |
| 2026-05-05 13:15 | 33.94090 | -118.40836 | 97 ft | 4 kts | 173° |
| 2026-05-05 13:16 | 33.94063 | -118.40832 | 98 ft | 4 kts | 173° |
| 2026-05-05 13:16 | 33.94036 | -118.40828 | 100 ft | 4 kts | 173° |
| 2026-05-05 13:16 | 33.94009 | -118.40824 | 99 ft | 3 kts | 173° |
| 2026-05-05 13:16 | 33.94004 | -118.40823 | 99 ft | 0 kts | 173° |
| 2026-05-05 13:19 | 33.94001 | -118.40822 | 100 ft | 4 kts | 173° |
| 2026-05-05 13:19 | 33.93926 | -118.40807 | 101 ft | 14 kts | 160° |
| 2026-05-05 13:19 | 33.93828 | -118.40707 | 102 ft | 24 kts | 122° |
| 2026-05-05 13:19 | 33.93829 | -118.40459 | 101 ft | 33 kts | 82° |
| 2026-05-05 13:20 | 33.93862 | -118.40197 | 103 ft | 34 kts | 82° |
| 2026-05-05 13:20 | 33.93883 | -118.40004 | 104 ft | 25 kts | 83° |
| 2026-05-05 13:20 | 33.93910 | -118.39731 | 102 ft | 41 kts | 84° |
| 2026-05-05 13:20 | 33.93947 | -118.39333 | 99 ft | 55 kts | 83° |
| 2026-05-05 13:21 | 33.94002 | -118.38825 | 101 ft | 67 kts | 83° |
| 2026-05-05 13:21 | 33.94045 | -118.38404 | 101 ft | 40 kts | 83° |
| 2026-05-05 13:21 | 33.94075 | -118.38093 | 99 ft | 19 kts | 89° |
| 2026-05-05 13:21 | 33.94030 | -118.38022 | 101 ft | 7 kts | 159° |
| 2026-05-05 13:22 | 33.94006 | -118.38025 | 100 ft | 2 kts | 194° |
| 2026-05-05 13:22 | 33.93997 | -118.38031 | 100 ft | 1 kts | 212° |
| 2026-05-05 13:22 | 33.93991 | -118.38040 | 102 ft | 2 kts | 235° |
| 2026-05-05 13:22 | 33.93980 | -118.38077 | 101 ft | 7 kts | 253° |
| 2026-05-05 13:23 | 33.93966 | -118.38163 | 103 ft | 13 kts | 263° |
| 2026-05-05 13:23 | 33.93929 | -118.38533 | 105 ft | 87 kts | 263° |
| 2026-05-05 13:23 | 33.93824 | -118.39587 | 106 ft | 163 kts | 263° |
| 2026-05-05 13:23 | 33.93700 | -118.40967 | 970 ft | 160 kts | 264° |
| 2026-05-05 13:24 | 33.93535 | -118.42371 | 1344 ft | 179 kts | 262° |
| 2026-05-05 13:24 | 33.93375 | -118.43877 | 1984 ft | 187 kts | 264° |
| 2026-05-05 13:24 | 33.93211 | -118.45539 | 2386 ft | 213 kts | 264° |
| 2026-05-05 13:24 | 33.93116 | -118.47417 | 2754 ft | 236 kts | 266° |
| 2026-05-05 13:25 | 33.92911 | -118.49385 | 3570 ft | 236 kts | 263° |
| 2026-05-05 13:25 | 33.92715 | -118.51358 | 4327 ft | 239 kts | 264° |
| 2026-05-05 13:25 | 33.92554 | -118.53360 | 5084 ft | 241 kts | 265° |
| 2026-05-05 13:25 | 33.92396 | -118.55382 | 5796 ft | 245 kts | 265° |
| 2026-05-05 13:26 | 33.92226 | -118.57435 | 6511 ft | 248 kts | 265° |
| 2026-05-05 13:26 | 33.92053 | -118.59505 | 7190 ft | 250 kts | 265° |
| 2026-05-05 13:26 | 33.91878 | -118.61593 | 7869 ft | 252 kts | 265° |
| 2026-05-05 13:26 | 33.91783 | -118.63702 | 8535 ft | 254 kts | 272° |
| 2026-05-05 13:27 | 33.91792 | -118.65834 | 9205 ft | 256 kts | 270° |
| 2026-05-05 13:27 | 33.91762 | -118.67983 | 9886 ft | 257 kts | 269° |
| 2026-05-05 13:27 | 33.91747 | -118.70142 | 10460 ft | 260 kts | 270° |
| 2026-05-05 13:27 | 33.91743 | -118.72334 | 10984 ft | 265 kts | 270° |
| 2026-05-05 13:28 | 33.91736 | -118.74564 | 11534 ft | 268 kts | 270° |
| 2026-05-05 13:28 | 33.91726 | -118.76822 | 11988 ft | 274 kts | 270° |
| 2026-05-05 13:28 | 33.91715 | -118.79151 | 11996 ft | 276 kts | 270° |
| 2026-05-05 13:28 | 33.91704 | -118.81437 | 11990 ft | 271 kts | 270° |
| 2026-05-05 13:29 | 33.91718 | -118.83703 | 11986 ft | 271 kts | 274° |
| 2026-05-05 13:29 | 33.91821 | -118.85990 | 12451 ft | 272 kts | 271° |
| 2026-05-05 13:29 | 33.91850 | -118.88237 | 13064 ft | 273 kts | 271° |
| 2026-05-05 13:29 | 33.91903 | -118.90541 | 13617 ft | 276 kts | 272° |
| 2026-05-05 13:30 | 33.91979 | -118.92858 | 14137 ft | 278 kts | 272° |
| 2026-05-05 13:30 | 33.92054 | -118.95195 | 14623 ft | 280 kts | 272° |
| 2026-05-05 13:30 | 33.92121 | -118.97552 | 15100 ft | 283 kts | 272° |
| 2026-05-05 13:30 | 33.92189 | -118.99924 | 15568 ft | 285 kts | 272° |
| 2026-05-05 13:31 | 33.92601 | -119.02252 | 15992 ft | 288 kts | 293° |
| 2026-05-05 13:31 | 33.93597 | -119.04354 | 16466 ft | 290 kts | 301° |
| 2026-05-05 13:31 | 33.94681 | -119.06419 | 16914 ft | 292 kts | 302° |
| 2026-05-05 13:31 | 33.95775 | -119.08491 | 17352 ft | 294 kts | 301° |
| 2026-05-05 13:32 | 33.96858 | -119.10591 | 17785 ft | 296 kts | 301° |
| 2026-05-05 13:32 | 33.97943 | -119.12711 | 18197 ft | 298 kts | 301° |
| 2026-05-05 13:32 | 33.99040 | -119.14841 | 18554 ft | 300 kts | 301° |
| 2026-05-05 13:32 | 34.00146 | -119.16981 | 18918 ft | 302 kts | 301° |
| 2026-05-05 13:33 | 34.01437 | -119.18976 | 19236 ft | 305 kts | 318° |
| 2026-05-05 13:33 | 34.03145 | -119.20506 | 19578 ft | 307 kts | 323° |
| 2026-05-05 13:33 | 34.04899 | -119.21999 | 19904 ft | 309 kts | 324° |
| 2026-05-05 13:33 | 34.06671 | -119.23501 | 20140 ft | 319 kts | 324° |